Time;durP1;ratioP1;P1;durP2;ratioP2;P2;SDS_P1;SDS_P2;PMS_P1;PMS_P2;Temp;Humidity;BMP_temperature;BMP_pressure;BME280_temperature;BME280_humidity;BME280_pressure;Samples;Min_cycle;Max_cycle;Signal;HPM_P1;HPM_P2
2021/12/12 00:00:46;;;;;;;8.30;4.00;;;;;;;;;;5072131;28;20039;-56
2021/12/12 00:03:21;;;;;;;7.97;4.00;;;;;;;;;;5072645;28;20044;-54
2021/12/12 00:05:52;;;;;;;8.13;3.83;;;;;;;;;;5055478;28;20412;-55
2021/12/12 00:08:19;;;;;;;7.07;3.47;;;;;;;;;;5052508;28;20036;-56
2021/12/12 00:10:46;;;;;;;6.18;3.35;;;;;;;;;;5052299;28;20036;-54
2021/12/12 00:13:17;;;;;;;6.28;3.65;;;;;;;;;;5057804;28;20028;-54
2021/12/12 00:15:42;;;;;;;8.50;4.20;;;;;;;;;;5072392;28;20548;-56
2021/12/12 00:18:08;;;;;;;8.93;3.80;;;;;;;;;;5072418;28;20136;-54
2021/12/12 00:20:34;;;;;;;8.32;4.05;;;;;;;;;;5076165;28;20361;-56
2021/12/12 00:22:59;;;;;;;11.65;3.97;;;;;;;;;;5076499;28;20390;-56
2021/12/12 00:25:30;;;;;;;10.15;4.75;;;;;;;;;;5076729;28;20078;-56
2021/12/12 00:27:56;;;;;;;10.30;4.15;;;;;;;;;;5074728;28;20330;-54
2021/12/12 00:30:22;;;;;;;7.70;3.95;;;;;;;;;;5056025;28;20036;-56
2021/12/12 00:32:49;;;;;;;10.77;4.30;;;;;;;;;;5056080;28;20120;-54
2021/12/12 00:35:16;;;;;;;8.25;3.53;;;;;;;;;;5056345;28;20115;-54
2021/12/12 00:37:42;;;;;;;9.35;5.15;;;;;;;;;;5056170;28;20115;-54
2021/12/12 00:40:36;;;;;;;7.07;3.63;;;;;;;;;;5056464;28;20028;-55
2021/12/12 00:43:06;;;;;;;8.07;4.30;;;;;;;;;;5033535;28;20041;-55
2021/12/12 00:45:32;;;;;;;10.23;3.83;;;;;;;;;;5033875;28;20521;-55
2021/12/12 00:47:57;;;;;;;9.50;4.53;;;;;;;;;;5033754;28;20049;-55
2021/12/12 00:50:28;;;;;;;9.93;3.65;;;;;;;;;;5033675;28;20029;-54
2021/12/12 00:52:54;;;;;;;7.43;3.88;;;;;;;;;;5033618;28;20041;-54
2021/12/12 00:55:20;;;;;;;6.40;3.85;;;;;;;;;;5034004;28;20074;-54
2021/12/12 00:57:50;;;;;;;9.27;4.53;;;;;;;;;;5044736;28;20056;-53
2021/12/12 01:00:18;;;;;;;9.13;4.22;;;;;;;;;;5073045;28;20056;-55
2021/12/12 01:02:43;;;;;;;12.90;5.13;;;;;;;;;;5073212;28;20438;-55
2021/12/12 01:05:11;;;;;;;7.10;4.25;;;;;;;;;;5061691;28;20147;-54
2021/12/12 01:07:38;;;;;;;11.35;4.10;;;;;;;;;;5053485;28;20505;-53
2021/12/12 01:10:17;;;;;;;8.40;3.95;;;;;;;;;;5053269;28;20128;-54
2021/12/12 01:12:42;;;;;;;9.90;3.78;;;;;;;;;;5053238;28;20063;-54
2021/12/12 01:15:14;;;;;;;11.85;4.55;;;;;;;;;;5052914;28;20481;-55
2021/12/12 01:17:41;;;;;;;7.20;3.65;;;;;;;;;;5053241;28;20120;-54
2021/12/12 01:20:12;;;;;;;7.95;3.28;;;;;;;;;;5070633;28;20029;-54
2021/12/12 01:22:38;;;;;;;7.40;3.40;;;;;;;;;;5075947;28;20059;-54
2021/12/12 01:25:08;;;;;;;8.10;4.15;;;;;;;;;;5066154;28;20057;-54
2021/12/12 01:27:33;;;;;;;9.85;4.13;;;;;;;;;;5054778;28;20519;-55
2021/12/12 01:29:59;;;;;;;7.28;3.25;;;;;;;;;;5054095;28;20112;-54
2021/12/12 01:32:28;;;;;;;9.93;4.15;;;;;;;;;;5054974;28;20056;-55
2021/12/12 01:34:56;;;;;;;10.23;3.65;;;;;;;;;;5054998;28;20037;-54
2021/12/12 01:39:56;;;;;;;11.15;4.20;;;;;;;;;;5054999;28;20517;-54
2021/12/12 01:42:24;;;;;;;8.85;3.80;;;;;;;;;;5054804;28;20420;-54
2021/12/12 01:45:01;;;;;;;8.35;3.47;;;;;;;;;;5054649;28;20037;-53
2021/12/12 01:47:35;;;;;;;8.85;3.55;;;;;;;;;;5054815;28;20029;-54
2021/12/12 01:50:03;;;;;;;11.68;3.90;;;;;;;;;;5054990;28;20496;-54
2021/12/12 01:52:29;;;;;;;10.30;3.65;;;;;;;;;;5054969;28;20036;-54
2021/12/12 01:54:58;;;;;;;10.05;4.07;;;;;;;;;;5071817;28;20032;-53
2021/12/12 01:57:26;;;;;;;7.97;3.38;;;;;;;;;;5074503;28;20412;-53
2021/12/12 01:59:51;;;;;;;7.88;3.33;;;;;;;;;;5093745;28;20048;-53
2021/12/12 02:02:19;;;;;;;6.30;3.35;;;;;;;;;;5094704;28;20040;-53
2021/12/12 02:04:49;;;;;;;9.50;3.28;;;;;;;;;;5086166;28;20034;-54
2021/12/12 02:07:16;;;;;;;6.47;2.80;;;;;;;;;;5075171;28;20461;-54
2021/12/12 02:09:41;;;;;;;7.38;3.50;;;;;;;;;;5074461;28;20036;-54
2021/12/12 02:12:07;;;;;;;8.02;3.15;;;;;;;;;;5074485;28;20497;-54
2021/12/12 02:14:35;;;;;;;9.18;3.45;;;;;;;;;;5074119;28;20028;-54
2021/12/12 02:17:03;;;;;;;7.47;3.65;;;;;;;;;;5073321;28;20094;-54
2021/12/12 02:19:42;;;;;;;9.52;4.00;;;;;;;;;;5074605;28;20020;-55
2021/12/12 02:35:54;;;;;;;9.68;2.70;;;;;;;;;;5051870;28;20087;-55
2021/12/12 02:38:27;;;;;;;8.60;2.95;;;;;;;;;;5051316;28;20454;-55
2021/12/12 02:40:54;;;;;;;8.80;3.00;;;;;;;;;;5051359;28;20033;-54
2021/12/12 02:43:20;;;;;;;13.65;3.50;;;;;;;;;;5051271;28;20033;-54
2021/12/12 02:45:46;;;;;;;7.55;2.88;;;;;;;;;;5051434;28;20029;-55
2021/12/12 02:48:17;;;;;;;11.68;3.35;;;;;;;;;;5051330;28;20045;-54
2021/12/12 02:50:45;;;;;;;8.05;3.13;;;;;;;;;;5064733;28;20507;-54
2021/12/12 02:53:13;;;;;;;8.90;3.20;;;;;;;;;;5071513;28;20040;-54
2021/12/12 02:55:40;;;;;;;7.43;3.17;;;;;;;;;;5072334;28;20485;-53
2021/12/12 02:58:06;;;;;;;7.47;2.92;;;;;;;;;;5073028;28;20040;-54
2021/12/12 03:00:34;;;;;;;7.15;2.97;;;;;;;;;;5088944;28;20051;-55
2021/12/12 03:03:00;;;;;;;8.93;3.38;;;;;;;;;;5093803;28;20036;-54
2021/12/12 03:05:28;;;;;;;8.95;4.63;;;;;;;;;;5079383;28;20029;-54
2021/12/12 03:07:53;;;;;;;9.70;3.58;;;;;;;;;;5073085;28;20115;-55
2021/12/12 03:10:21;;;;;;;8.60;3.05;;;;;;;;;;5073909;28;20436;-53
2021/12/12 03:12:46;;;;;;;8.85;3.30;;;;;;;;;;5073403;28;20033;-55
2021/12/12 03:15:11;;;;;;;5.88;2.88;;;;;;;;;;5073016;28;20035;-53
2021/12/12 03:17:38;;;;;;;8.15;3.20;;;;;;;;;;5072842;28;20036;-54
2021/12/12 03:20:09;;;;;;;7.47;3.53;;;;;;;;;;5070055;28;20029;-54
2021/12/12 03:22:34;;;;;;;9.77;3.35;;;;;;;;;;5053726;28;20082;-53
2021/12/12 03:25:00;;;;;;;8.98;2.38;;;;;;;;;;5053324;28;20116;-54
2021/12/12 03:27:26;;;;;;;8.20;2.22;;;;;;;;;;5067320;28;20079;-54
2021/12/12 03:29:52;;;;;;;7.88;3.63;;;;;;;;;;5073037;28;20048;-54
2021/12/12 03:32:18;;;;;;;4.63;2.40;;;;;;;;;;5072679;28;20036;-55
2021/12/12 03:34:46;;;;;;;6.18;2.65;;;;;;;;;;5073080;28;20047;-53
2021/12/12 03:37:13;;;;;;;5.90;2.80;;;;;;;;;;5073248;28;20047;-54
2021/12/12 03:39:41;;;;;;;9.88;3.25;;;;;;;;;;5072858;28;20033;-54
2021/12/12 03:42:11;;;;;;;6.75;2.90;;;;;;;;;;5072968;28;20362;-54
2021/12/12 03:44:38;;;;;;;7.72;3.08;;;;;;;;;;5105360;28;20031;-54
2021/12/12 03:47:06;;;;;;;6.95;2.13;;;;;;;;;;5071439;28;20025;-53
2021/12/12 03:49:33;;;;;;;6.60;2.80;;;;;;;;;;5073467;28;20094;-52
2021/12/12 03:51:58;;;;;;;5.78;2.42;;;;;;;;;;5072796;28;20054;-55
2021/12/12 03:54:24;;;;;;;8.82;3.40;;;;;;;;;;5072479;28;20552;-56
2021/12/12 03:56:49;;;;;;;8.52;2.72;;;;;;;;;;5072635;28;20024;-54
2021/12/12 03:59:15;;;;;;;5.25;2.85;;;;;;;;;;5072388;28;20504;-54
2021/12/12 04:01:51;;;;;;;5.70;2.67;;;;;;;;;;5072427;28;20021;-54
2021/12/12 04:04:22;;;;;;;5.20;2.53;;;;;;;;;;5072296;28;20024;-54
2021/12/12 04:06:48;;;;;;;6.95;2.85;;;;;;;;;;5072784;28;20036;-54
2021/12/12 04:09:14;;;;;;;5.95;2.72;;;;;;;;;;5072925;28;20047;-53
2021/12/12 04:11:48;;;;;;;7.47;3.08;;;;;;;;;;5072236;28;20497;-52
2021/12/12 04:14:14;;;;;;;6.10;2.67;;;;;;;;;;5072289;28;20492;-53
2021/12/12 04:16:42;;;;;;;5.38;2.28;;;;;;;;;;5073076;28;20032;-55
2021/12/12 04:19:08;;;;;;;6.05;2.17;;;;;;;;;;5072742;28;20132;-54
2021/12/12 04:21:34;;;;;;;8.02;2.35;;;;;;;;;;5072462;28;20494;-53
2021/12/12 04:23:59;;;;;;;5.95;1.95;;;;;;;;;;5060016;28;20120;-54
2021/12/12 04:26:29;;;;;;;5.43;2.85;;;;;;;;;;5052409;28;20029;-55
2021/12/12 04:29:00;;;;;;;10.15;2.17;;;;;;;;;;5052580;28;20067;-54
2021/12/12 04:31:25;;;;;;;6.95;2.33;;;;;;;;;;5052765;28;20087;-54
2021/12/12 04:33:51;;;;;;;5.20;2.28;;;;;;;;;;5052400;28;20546;-53
2021/12/12 04:36:16;;;;;;;4.65;2.25;;;;;;;;;;5052631;28;20045;-54
2021/12/12 04:38:42;;;;;;;5.43;2.55;;;;;;;;;;5052253;28;20041;-53
2021/12/12 04:41:07;;;;;;;6.90;2.40;;;;;;;;;;5052306;28;20418;-52
2021/12/12 04:43:33;;;;;;;4.50;2.30;;;;;;;;;;5052341;28;20083;-54
2021/12/12 04:46:22;;;;;;;4.65;1.90;;;;;;;;;;5052140;28;20037;-54
2021/12/12 04:51:46;;;;;;;6.45;2.20;;;;;;;;;;5052226;28;20036;-54
2021/12/12 04:54:30;;;;;;;5.15;1.52;;;;;;;;;;5052004;28;20116;-54
2021/12/12 04:56:55;;;;;;;3.92;1.92;;;;;;;;;;5051818;28;20033;-54
2021/12/12 04:59:28;;;;;;;5.33;2.10;;;;;;;;;;5052087;28;20048;-55
2021/12/12 05:01:56;;;;;;;3.03;1.48;;;;;;;;;;5041543;28;20455;-54
2021/12/12 05:04:30;;;;;;;4.30;2.13;;;;;;;;;;5042320;28;20468;-53
2021/12/12 05:07:01;;;;;;;3.35;1.60;;;;;;;;;;5093972;27;20134;-56
2021/12/12 05:09:31;;;;;;;3.00;2.10;;;;;;;;;;5077193;28;20204;-54
2021/12/12 05:12:02;;;;;;;3.22;1.83;;;;;;;;;;5054975;28;20497;-55
2021/12/12 05:14:31;;;;;;;2.60;1.45;;;;;;;;;;5054951;28;20482;-54
2021/12/12 05:17:21;;;;;;;2.45;1.60;;;;;;;;;;5054754;28;20029;-54
2021/12/12 05:19:49;;;;;;;4.45;1.92;;;;;;;;;;5052497;28;20108;-54
2021/12/12 05:22:17;;;;;;;4.05;1.70;;;;;;;;;;5053548;28;20029;-54
2021/12/12 05:24:43;;;;;;;2.22;1.52;;;;;;;;;;5053252;28;20550;-55
2021/12/12 05:27:13;;;;;;;2.08;1.05;;;;;;;;;;5065040;28;20110;-55
2021/12/12 05:29:47;;;;;;;2.22;1.50;;;;;;;;;;5073079;28;20101;-55
2021/12/12 05:32:13;;;;;;;5.13;1.77;;;;;;;;;;5072697;28;20109;-54
2021/12/12 05:34:39;;;;;;;2.30;1.40;;;;;;;;;;5073514;28;20498;-54
2021/12/12 05:37:05;;;;;;;1.75;1.27;;;;;;;;;;5072616;28;20032;-54
2021/12/12 05:39:32;;;;;;;3.47;1.60;;;;;;;;;;5072701;28;20112;-55
2021/12/12 05:41:57;;;;;;;1.88;1.35;;;;;;;;;;5072800;28;20032;-54
2021/12/12 05:44:24;;;;;;;2.42;1.20;;;;;;;;;;5072534;28;20397;-56
2021/12/12 05:46:50;;;;;;;1.60;1.23;;;;;;;;;;5072464;28;20135;-54
2021/12/12 05:49:15;;;;;;;2.28;1.20;;;;;;;;;;5072997;28;20046;-54
2021/12/12 05:51:40;;;;;;;1.65;1.10;;;;;;;;;;5072373;28;20156;-55
2021/12/12 05:54:06;;;;;;;3.65;1.58;;;;;;;;;;5072714;28;20073;-54
2021/12/12 05:56:34;;;;;;;1.33;1.10;;;;;;;;;;5064633;28;20444;-54
2021/12/12 05:59:00;;;;;;;2.15;1.10;;;;;;;;;;5052568;28;20041;-55
2021/12/12 06:01:26;;;;;;;2.70;1.08;;;;;;;;;;5054732;28;20488;-54
2021/12/12 06:03:52;;;;;;;1.17;0.98;;;;;;;;;;5055386;28;20037;-54
2021/12/12 06:06:19;;;;;;;1.23;0.77;;;;;;;;;;5074459;28;20028;-54
2021/12/12 06:08:45;;;;;;;1.40;0.70;;;;;;;;;;5073848;28;20027;-54
2021/12/12 06:11:11;;;;;;;2.30;0.90;;;;;;;;;;5074490;28;20029;-54
2021/12/12 06:13:37;;;;;;;1.08;0.60;;;;;;;;;;5074633;28;20113;-54
2021/12/12 06:16:03;;;;;;;2.65;0.90;;;;;;;;;;5073985;28;20423;-54
2021/12/12 06:18:29;;;;;;;2.80;0.93;;;;;;;;;;5074314;28;20038;-54
2021/12/12 06:20:55;;;;;;;1.85;0.70;;;;;;;;;;5074159;28;20074;-54
2021/12/12 06:23:20;;;;;;;1.38;0.68;;;;;;;;;;5074366;28;20029;-54
2021/12/12 06:25:47;;;;;;;2.47;0.82;;;;;;;;;;5074214;28;20444;-54
2021/12/12 06:28:18;;;;;;;1.50;0.52;;;;;;;;;;5074629;28;20036;-54
2021/12/12 06:30:43;;;;;;;1.00;0.57;;;;;;;;;;5074067;28;20071;-54
2021/12/12 06:33:09;;;;;;;2.05;0.50;;;;;;;;;;5073870;28;20056;-54
2021/12/12 06:35:35;;;;;;;3.03;0.80;;;;;;;;;;5073787;28;20111;-54
2021/12/12 06:38:03;;;;;;;1.00;0.55;;;;;;;;;;5073878;28;20135;-54
2021/12/12 06:40:28;;;;;;;1.75;0.80;;;;;;;;;;5074530;28;20085;-55
2021/12/12 06:42:54;;;;;;;1.75;0.65;;;;;;;;;;5073875;28;20121;-55
2021/12/12 06:45:20;;;;;;;1.15;0.60;;;;;;;;;;5073780;28;20047;-54
2021/12/12 06:47:45;;;;;;;0.80;0.47;;;;;;;;;;5061508;28;20029;-54
2021/12/12 06:50:10;;;;;;;1.80;0.60;;;;;;;;;;5054061;28;20021;-54
2021/12/12 06:52:36;;;;;;;1.30;0.63;;;;;;;;;;5054041;28;20115;-55
2021/12/12 06:55:02;;;;;;;2.08;0.45;;;;;;;;;;5053597;28;20036;-55
2021/12/12 06:57:28;;;;;;;0.57;0.43;;;;;;;;;;5053437;28;20385;-55
2021/12/12 06:59:53;;;;;;;1.27;0.50;;;;;;;;;;5068176;28;20055;-54
2021/12/12 07:02:19;;;;;;;0.80;0.60;;;;;;;;;;5053052;28;20028;-55
2021/12/12 07:04:44;;;;;;;1.38;0.70;;;;;;;;;;5061261;28;20031;-55
2021/12/12 07:07:11;;;;;;;0.40;0.32;;;;;;;;;;5089255;28;20042;-54
2021/12/12 07:09:36;;;;;;;0.68;0.40;;;;;;;;;;5093701;28;20051;-54
2021/12/12 07:12:07;;;;;;;1.27;0.57;;;;;;;;;;5093511;28;20040;-54
2021/12/12 07:14:33;;;;;;;0.82;0.40;;;;;;;;;;5093461;28;20032;-54
2021/12/12 07:16:59;;;;;;;1.45;0.47;;;;;;;;;;5093297;28;20032;-55
2021/12/12 07:19:25;;;;;;;0.30;0.30;;;;;;;;;;5093766;28;20026;-55
2021/12/12 07:21:50;;;;;;;1.40;0.50;;;;;;;;;;5093394;28;20065;-54
2021/12/12 07:24:16;;;;;;;0.57;0.50;;;;;;;;;;5093080;28;20028;-55
2021/12/12 07:26:42;;;;;;;0.60;0.45;;;;;;;;;;5093068;28;20036;-55
2021/12/12 07:29:07;;;;;;;1.00;0.60;;;;;;;;;;5092725;28;20028;-54
2021/12/12 07:31:35;;;;;;;0.98;0.50;;;;;;;;;;5082917;28;20449;-54
2021/12/12 07:34:02;;;;;;;1.38;0.60;;;;;;;;;;5071618;28;20488;-55
2021/12/12 07:36:30;;;;;;;0.52;0.30;;;;;;;;;;5072937;28;20048;-55
2021/12/12 07:38:58;;;;;;;0.73;0.40;;;;;;;;;;5072981;28;20044;-55
2021/12/12 07:41:25;;;;;;;0.40;0.35;;;;;;;;;;5073106;28;20025;-56
2021/12/12 07:43:50;;;;;;;1.13;0.43;;;;;;;;;;5072638;28;20032;-56
2021/12/12 07:46:16;;;;;;;1.90;0.63;;;;;;;;;;5073122;28;20146;-54
2021/12/12 07:48:46;;;;;;;0.63;0.50;;;;;;;;;;5072718;28;20381;-57
2021/12/12 07:51:12;;;;;;;0.60;0.40;;;;;;;;;;5073030;28;20477;-55
2021/12/12 07:53:37;;;;;;;0.68;0.50;;;;;;;;;;5072692;28;20104;-56
2021/12/12 07:56:03;;;;;;;0.75;0.47;;;;;;;;;;5072620;28;20055;-54
2021/12/12 07:58:29;;;;;;;0.88;0.60;;;;;;;;;;5071474;28;20044;-56
2021/12/12 08:00:55;;;;;;;0.57;0.40;;;;;;;;;;5072690;28;20033;-55
2021/12/12 08:03:22;;;;;;;0.95;0.50;;;;;;;;;;5072452;28;20040;-55
2021/12/12 08:05:48;;;;;;;1.98;0.93;;;;;;;;;;5072113;28;20481;-54
2021/12/12 08:08:14;;;;;;;2.03;0.70;;;;;;;;;;5072526;28;20071;-54
2021/12/12 08:10:42;;;;;;;0.63;0.45;;;;;;;;;;5069615;28;20017;-55
2021/12/12 08:13:08;;;;;;;0.88;0.40;;;;;;;;;;5070653;28;20079;-54
2021/12/12 08:15:34;;;;;;;1.00;0.47;;;;;;;;;;5080838;28;20060;-53
2021/12/12 08:18:00;;;;;;;1.00;0.47;;;;;;;;;;5073248;28;20463;-53
2021/12/12 08:20:26;;;;;;;1.15;0.50;;;;;;;;;;5081487;28;20408;-53
2021/12/12 08:22:52;;;;;;;0.57;0.50;;;;;;;;;;5080580;28;20025;-55
2021/12/12 08:25:19;;;;;;;0.60;0.50;;;;;;;;;;5082990;28;20017;-54
2021/12/12 08:27:44;;;;;;;1.38;0.77;;;;;;;;;;5075368;28;20496;-54
2021/12/12 08:30:11;;;;;;;1.00;0.52;;;;;;;;;;5071300;28;20033;-54
2021/12/12 08:32:37;;;;;;;2.40;0.80;;;;;;;;;;5071229;28;20028;-54
2021/12/12 08:35:04;;;;;;;0.80;0.43;;;;;;;;;;5071779;28;20090;-54
2021/12/12 08:37:30;;;;;;;0.90;0.50;;;;;;;;;;5072348;28;20032;-56
2021/12/12 08:39:55;;;;;;;0.55;0.52;;;;;;;;;;5072336;28;20044;-54
2021/12/12 08:42:26;;;;;;;1.13;0.52;;;;;;;;;;5075784;28;20029;-54
2021/12/12 08:44:52;;;;;;;1.65;0.65;;;;;;;;;;5075924;28;20025;-52
2021/12/12 08:47:17;;;;;;;0.63;0.50;;;;;;;;;;5077208;28;20027;-54
2021/12/12 08:49:42;;;;;;;1.23;0.57;;;;;;;;;;5080355;28;20063;-54
2021/12/12 08:52:12;;;;;;;1.98;0.47;;;;;;;;;;5076543;28;20032;-54
2021/12/12 08:54:40;;;;;;;0.57;0.30;;;;;;;;;;5075916;28;20414;-54
2021/12/12 08:57:23;;;;;;;2.10;0.80;;;;;;;;;;5074133;28;20069;-54
2021/12/12 08:59:51;;;;;;;6.07;0.90;;;;;;;;;;5077868;28;20032;-54
2021/12/12 09:02:18;;;;;;;2.47;0.85;;;;;;;;;;5075023;28;20032;-55
2021/12/12 09:04:49;;;;;;;1.20;0.45;;;;;;;;;;5074867;28;20016;-54
2021/12/12 09:07:18;;;;;;;2.60;0.88;;;;;;;;;;5072923;28;20046;-54
2021/12/12 09:09:50;;;;;;;1.50;0.80;;;;;;;;;;5089750;28;20492;-54
2021/12/12 09:12:20;;;;;;;0.77;0.60;;;;;;;;;;5074893;28;20029;-54
2021/12/12 09:14:45;;;;;;;;;;;;;;;;;;5099283;28;20028;-53
2021/12/12 09:17:10;;;;;;;0.90;0.50;;;;;;;;;;5074312;28;19913;-54
2021/12/12 09:19:36;;;;;;;1.95;0.93;;;;;;;;;;5074636;28;20032;-53
2021/12/12 09:22:07;;;;;;;1.58;0.65;;;;;;;;;;5074833;28;20036;-53
2021/12/12 09:24:43;;;;;;;1.08;0.80;;;;;;;;;;5071436;28;20484;-54
2021/12/12 09:27:11;;;;;;;1.80;0.70;;;;;;;;;;5071870;28;20025;-55
2021/12/12 09:29:41;;;;;;;1.48;0.98;;;;;;;;;;5074134;28;20382;-54
2021/12/12 09:32:33;;;;;;;1.80;0.77;;;;;;;;;;5074317;28;20041;-55
2021/12/12 09:35:14;;;;;;;1.17;0.95;;;;;;;;;;5059128;28;20033;-55
2021/12/12 09:37:43;;;;;;;1.20;0.70;;;;;;;;;;5052311;28;20465;-54
2021/12/12 09:40:27;;;;;;;0.85;0.65;;;;;;;;;;5032092;28;20113;-54
2021/12/12 09:43:13;;;;;;;2.55;1.13;;;;;;;;;;5030166;28;20134;-55
2021/12/12 09:45:56;;;;;;;2.20;0.90;;;;;;;;;;5031373;28;20100;-55
2021/12/12 09:51:54;;;;;;;3.00;0.65;;;;;;;;;;5031210;28;20472;-54
2021/12/12 09:54:23;;;;;;;0.98;0.70;;;;;;;;;;5003219;28;20033;-55
2021/12/12 09:56:51;;;;;;;2.33;0.70;;;;;;;;;;5003742;28;20026;-55
2021/12/12 09:59:39;;;;;;;0.95;0.85;;;;;;;;;;5001320;28;20044;-55
2021/12/12 10:02:04;;;;;;;2.35;1.05;;;;;;;;;;5008694;28;20053;-52
2021/12/12 10:04:33;;;;;;;3.45;1.02;;;;;;;;;;5003364;28;20042;-54
2021/12/12 10:06:59;;;;;;;1.67;1.30;;;;;;;;;;5002538;28;20593;-54
2021/12/12 10:09:46;;;;;;;1.85;1.17;;;;;;;;;;5000407;28;20035;-53
2021/12/12 10:12:15;;;;;;;3.45;0.93;;;;;;;;;;5030581;28;20444;-55
2021/12/12 10:14:58;;;;;;;1.48;0.70;;;;;;;;;;5041900;28;20116;-54
2021/12/12 10:17:26;;;;;;;2.63;0.77;;;;;;;;;;5042740;28;20044;-54
2021/12/12 10:20:00;;;;;;;0.98;0.70;;;;;;;;;;5024123;28;20044;-54
2021/12/12 10:22:41;;;;;;;1.45;0.80;;;;;;;;;;5042982;28;20587;-52
2021/12/12 10:25:09;;;;;;;1.00;0.70;;;;;;;;;;5022405;28;20053;-54
2021/12/12 10:27:52;;;;;;;1.65;0.80;;;;;;;;;;5036082;28;20072;-53
2021/12/12 10:30:29;;;;;;;1.80;1.00;;;;;;;;;;5046745;28;20094;-52
2021/12/12 10:33:02;;;;;;;0.82;0.80;;;;;;;;;;5053064;28;20033;-50
2021/12/12 10:35:33;;;;;;;0.95;0.85;;;;;;;;;;5053449;28;20033;-52
2021/12/12 10:38:10;;;;;;;0.90;0.70;;;;;;;;;;5050704;28;20036;-52
2021/12/12 10:40:37;;;;;;;0.95;0.65;;;;;;;;;;5051147;28;20496;-55
2021/12/12 10:43:04;;;;;;;0.80;0.80;;;;;;;;;;5051989;28;20116;-53
2021/12/12 10:45:32;;;;;;;0.88;0.70;;;;;;;;;;5052139;28;20028;-54
2021/12/12 10:47:57;;;;;;;1.95;0.50;;;;;;;;;;5051596;28;20036;-55
2021/12/12 10:50:28;;;;;;;0.90;0.65;;;;;;;;;;5051944;28;20021;-55
2021/12/12 10:52:58;;;;;;;1.10;0.50;;;;;;;;;;5052291;28;20486;-53
2021/12/12 10:55:36;;;;;;;0.95;0.52;;;;;;;;;;5052249;28;20086;-52
2021/12/12 10:58:02;;;;;;;0.90;0.57;;;;;;;;;;5051546;28;20037;-55
2021/12/12 11:00:30;;;;;;;0.63;0.60;;;;;;;;;;5051589;28;20082;-54
2021/12/12 11:02:55;;;;;;;0.80;0.70;;;;;;;;;;5051251;28;20032;-55
2021/12/12 11:05:27;;;;;;;0.90;0.60;;;;;;;;;;5051184;28;20025;-55
2021/12/12 11:08:03;;;;;;;0.35;0.32;;;;;;;;;;5051565;28;20487;-54
2021/12/12 11:10:32;;;;;;;1.77;0.65;;;;;;;;;;5051971;28;20020;-52
2021/12/12 11:13:01;;;;;;;1.60;0.60;;;;;;;;;;5051711;28;20124;-54
2021/12/12 11:15:34;;;;;;;1.02;0.57;;;;;;;;;;5048896;28;20760;-54
2021/12/12 11:17:59;;;;;;;1.33;0.70;;;;;;;;;;5050122;28;20037;-55
2021/12/12 11:20:26;;;;;;;1.00;0.57;;;;;;;;;;5047015;28;20026;-55
2021/12/12 11:23:00;;;;;;;0.43;0.32;;;;;;;;;;5045154;28;20025;-54
2021/12/12 11:25:28;;;;;;;2.05;0.60;;;;;;;;;;5053362;28;20015;-55
2021/12/12 11:28:19;;;;;;;1.15;0.65;;;;;;;;;;5052684;28;20047;-55
2021/12/12 11:30:47;;;;;;;0.68;0.60;;;;;;;;;;5030560;28;20044;-55
2021/12/12 11:33:14;;;;;;;1.63;0.77;;;;;;;;;;5030517;28;20034;-55
2021/12/12 11:35:40;;;;;;;2.72;1.35;;;;;;;;;;5030605;28;20506;-55
2021/12/12 11:38:14;;;;;;;3.17;1.85;;;;;;;;;;5030369;28;20489;-55
2021/12/12 11:40:52;;;;;;;3.72;1.48;;;;;;;;;;5028431;28;20017;-55
2021/12/12 11:43:20;;;;;;;2.03;1.33;;;;;;;;;;5060471;28;20123;-55
2021/12/12 11:46:08;;;;;;;2.05;1.30;;;;;;;;;;5063308;28;20056;-54
2021/12/12 11:48:57;;;;;;;3.30;1.10;;;;;;;;;;5053823;28;20171;-54
2021/12/12 11:51:32;;;;;;;2.35;1.65;;;;;;;;;;5056988;28;20493;-53
2021/12/12 11:54:07;;;;;;;2.08;1.20;;;;;;;;;;5058394;28;20033;-53
2021/12/12 11:56:47;;;;;;;2.13;1.00;;;;;;;;;;5058711;28;20045;-54
2021/12/12 11:59:19;;;;;;;2.72;1.33;;;;;;;;;;5061442;28;20056;-56
2021/12/12 12:01:48;;;;;;;2.47;1.10;;;;;;;;;;5059004;28;20052;-53
2021/12/12 12:04:16;;;;;;;1.80;1.10;;;;;;;;;;5055150;28;20033;-54
2021/12/12 12:06:53;;;;;;;3.53;1.25;;;;;;;;;;5058908;28;20040;-55
2021/12/12 12:09:41;;;;;;;3.42;1.17;;;;;;;;;;5075878;28;20110;-54
2021/12/12 12:12:34;;;;;;;1.33;1.10;;;;;;;;;;5067854;28;20032;-53
2021/12/12 12:15:05;;;;;;;2.28;1.20;;;;;;;;;;5068645;28;20033;-54
2021/12/12 12:17:31;;;;;;;1.52;1.00;;;;;;;;;;5075050;28;20041;-56
2021/12/12 12:20:11;;;;;;;2.65;1.20;;;;;;;;;;5067327;28;20537;-54
2021/12/12 12:22:52;;;;;;;1.90;0.88;;;;;;;;;;5061378;28;20147;-55
2021/12/12 12:25:25;;;;;;;1.40;0.80;;;;;;;;;;5064388;28;20040;-56
2021/12/12 12:27:53;;;;;;;3.22;1.40;;;;;;;;;;5053076;28;20044;-55
2021/12/12 12:30:30;;;;;;;1.48;1.00;;;;;;;;;;5059322;28;20037;-55
2021/12/12 12:33:14;;;;;;;2.13;1.48;;;;;;;;;;5051914;28;20051;-57
2021/12/12 12:35:52;;;;;;;2.83;1.30;;;;;;;;;;5052470;28;20124;-53
2021/12/12 12:38:36;;;;;;;3.35;1.35;;;;;;;;;;5051615;28;20051;-56
2021/12/12 12:41:20;;;;;;;2.33;1.25;;;;;;;;;;5066598;28;20070;-56
2021/12/12 12:44:04;;;;;;;3.67;1.30;;;;;;;;;;5053301;28;20120;-56
2021/12/12 12:46:48;;;;;;;3.53;1.42;;;;;;;;;;5056462;28;20498;-54
2021/12/12 12:49:31;;;;;;;3.97;1.52;;;;;;;;;;5072119;28;20083;-57
2021/12/12 12:52:21;;;;;;;3.83;1.30;;;;;;;;;;5055377;28;20061;-55
2021/12/12 12:55:05;;;;;;;4.23;1.10;;;;;;;;;;5057900;28;20033;-53
2021/12/12 12:57:34;;;;;;;2.70;1.50;;;;;;;;;;5061110;28;20033;-54
2021/12/12 13:00:11;;;;;;;1.55;1.05;;;;;;;;;;5052633;28;20040;-55
2021/12/12 13:02:42;;;;;;;2.10;1.23;;;;;;;;;;5052458;28;20028;-53
2021/12/12 13:05:07;;;;;;;10.15;1.63;;;;;;;;;;5063705;28;20123;-53
2021/12/12 13:07:47;;;;;;;2.03;1.40;;;;;;;;;;5072472;28;20595;-58
2021/12/12 13:10:25;;;;;;;2.10;1.20;;;;;;;;;;5071377;28;20499;-54
2021/12/12 13:13:03;;;;;;;2.15;1.40;;;;;;;;;;5070772;28;20043;-56
2021/12/12 13:15:45;;;;;;;6.85;1.15;;;;;;;;;;5071894;28;20377;-58
2021/12/12 13:18:16;;;;;;;4.95;1.20;;;;;;;;;;5071581;28;20131;-56
2021/12/12 13:20:46;;;;;;;1.60;1.02;;;;;;;;;;5066628;28;20048;-56
2021/12/12 13:23:12;;;;;;;5.75;1.25;;;;;;;;;;5051832;28;20140;-57
2021/12/12 13:25:42;;;;;;;3.97;1.90;;;;;;;;;;5055601;28;20100;-55
2021/12/12 13:28:10;;;;;;;2.38;1.30;;;;;;;;;;5071942;28;20584;-55
2021/12/12 13:30:58;;;;;;;4.32;1.40;;;;;;;;;;5071484;28;20079;-56
2021/12/12 13:33:28;;;;;;;1.88;1.40;;;;;;;;;;5071684;28;20081;-55
2021/12/12 13:36:19;;;;;;;2.72;1.10;;;;;;;;;;5071476;28;20039;-54
2021/12/12 13:38:49;;;;;;;3.42;1.20;;;;;;;;;;5068292;28;20401;-57
2021/12/12 13:41:14;;;;;;;4.82;1.60;;;;;;;;;;5071603;28;20032;-57
2021/12/12 13:43:47;;;;;;;4.93;1.67;;;;;;;;;;5070800;28;20577;-56
2021/12/12 13:46:12;;;;;;;4.15;1.48;;;;;;;;;;5031709;28;20866;-56
2021/12/12 13:48:40;;;;;;;2.95;1.80;;;;;;;;;;5039555;28;20045;-56
2021/12/12 13:51:09;;;;;;;4.40;1.63;;;;;;;;;;5063192;28;20554;-56
2021/12/12 13:53:50;;;;;;;3.25;2.38;;;;;;;;;;5062193;28;20037;-55
2021/12/12 13:56:28;;;;;;;3.13;1.63;;;;;;;;;;5072848;28;20138;-53
2021/12/12 13:59:12;;;;;;;3.10;1.88;;;;;;;;;;5091065;28;20040;-57
2021/12/12 14:01:43;;;;;;;2.58;1.70;;;;;;;;;;5079338;28;20025;-57
2021/12/12 14:04:12;;;;;;;2.40;1.55;;;;;;;;;;5068209;28;20052;-57
2021/12/12 14:06:40;;;;;;;4.68;1.88;;;;;;;;;;5071156;28;20112;-57
2021/12/12 14:09:08;;;;;;;2.67;1.80;;;;;;;;;;5085049;28;20112;-56
2021/12/12 14:11:36;;;;;;;5.03;1.70;;;;;;;;;;5091120;28;20024;-55
2021/12/12 14:14:04;;;;;;;2.42;1.60;;;;;;;;;;5078644;28;20025;-54
2021/12/12 14:16:31;;;;;;;2.38;1.60;;;;;;;;;;5070049;28;20135;-55
2021/12/12 14:19:11;;;;;;;3.17;1.90;;;;;;;;;;5061118;28;20063;-57
2021/12/12 14:21:37;;;;;;;4.07;1.70;;;;;;;;;;5050463;28;20517;-56
2021/12/12 14:24:05;;;;;;;2.80;1.55;;;;;;;;;;5050643;28;20099;-54
2021/12/12 14:26:35;;;;;;;3.42;2.03;;;;;;;;;;5050870;28;20057;-55
2021/12/12 14:29:03;;;;;;;2.30;1.50;;;;;;;;;;5051143;28;20048;-57
2021/12/12 14:31:32;;;;;;;2.33;1.80;;;;;;;;;;5050911;28;20434;-57
2021/12/12 14:34:03;;;;;;;3.23;1.83;;;;;;;;;;5050311;28;20370;-69
2021/12/12 14:36:29;;;;;;;4.70;1.85;;;;;;;;;;5057205;28;20082;-63
2021/12/12 14:38:57;;;;;;;4.63;1.58;;;;;;;;;;5069543;28;20397;-66
2021/12/12 14:41:31;;;;;;;1.65;1.52;;;;;;;;;;5066564;28;20044;-65
2021/12/12 14:43:57;;;;;;;5.75;1.50;;;;;;;;;;5070144;28;20067;-62
2021/12/12 14:46:25;;;;;;;1.52;1.13;;;;;;;;;;5054551;28;20418;-62
2021/12/12 14:48:55;;;;;;;2.10;1.40;;;;;;;;;;5069146;28;20175;-63
2021/12/12 14:51:23;;;;;;;1.70;1.33;;;;;;;;;;5069566;28;20090;-66
2021/12/12 14:53:50;;;;;;;4.53;1.63;;;;;;;;;;5070169;28;20029;-65
2021/12/12 14:56:18;;;;;;;1.95;1.20;;;;;;;;;;5070168;28;20106;-65
2021/12/12 14:58:47;;;;;;;2.67;1.23;;;;;;;;;;5068414;28;20067;-64
2021/12/12 15:01:16;;;;;;;1.60;1.40;;;;;;;;;;5069945;28;20048;-63
2021/12/12 15:03:43;;;;;;;1.55;1.13;;;;;;;;;;5099346;28;20037;-63
2021/12/12 15:06:08;;;;;;;2.80;1.63;;;;;;;;;;5069005;28;20681;-64
2021/12/12 15:08:38;;;;;;;4.13;1.50;;;;;;;;;;5069089;28;20051;-64
2021/12/12 15:11:06;;;;;;;2.45;1.70;;;;;;;;;;5069577;28;20032;-63
2021/12/12 15:13:34;;;;;;;1.95;1.42;;;;;;;;;;5069978;28;20670;-64
2021/12/12 15:16:02;;;;;;;3.13;1.92;;;;;;;;;;5069568;28;20037;-63
2021/12/12 15:18:30;;;;;;;1.85;1.52;;;;;;;;;;5068994;28;20040;-63
2021/12/12 15:20:57;;;;;;;13.68;2.38;;;;;;;;;;5069627;28;20051;-66